Latest Weather Observations for Creal Reef

IDQ60801

Issued at 9:32 pm EST Wednesday 24 May 2017 (issued every 30 minutes, with the page automatically refreshed every 10 minutes)

About weather observations | Map of weather stations | Latest weather observations for QLD | Other Formats
Station Details ID: 200736 Name: CREAL REEF Lat: -20.53 Lon: 150.38 Height: 1.7 m
Data from the previous 72 hours. | See also: Recent months for locations in Queensland
Date/Time
EST
Temp
°C
App
Temp
°C
Dew
Point
°C
Rel
Hum
%
Delta-T
°C
Wind Press
QNH
hPa
Press
MSL
hPa
Rain since
9am
mm
Dir  Spd
km/h
Gust
km/h
Spd
kts
Gust
kts
24/09:30pm 24.2 - - - - SSE 30 35 16 19 1017.3 - -
24/09:20pm 24.2 - - - - SSE 30 35 16 19 1017.4 1017.3 -
24/09:00pm 24.2 - - - - SSE 32 39 17 21 1017.3 - -
24/08:30pm 24.2 - - - - SSE 30 35 16 19 1017.5 - -
24/08:20pm 24.2 - - - - SSE 32 - 17 - - 1017.4 -
24/08:00pm 24.2 - - - - SSE 32 41 17 22 1017.4 - -
24/07:30pm 24.2 - - - - SSE 33 41 18 22 1017.2 - -
24/07:20pm 24.3 - - - - SSE 32 - 17 - - 1017.0 -
24/07:00pm 24.3 - - - - SSE 30 37 16 20 1017.0 - -
24/06:30pm 24.3 - - - - SSE 30 37 16 20 1016.7 - -
24/06:20pm 24.2 - - - - SSE 32 - 17 - - 1016.5 -
24/06:00pm 24.2 - - - - SSE 32 41 17 22 1016.3 - -
24/05:30pm 24.3 - - - - SSE 32 39 17 21 1016.1 - -
24/05:20pm 24.3 - - - - SSE 32 - 17 - - 1015.9 -
24/05:00pm 24.3 - - - - SSE 32 39 17 21 1015.8 - -
24/04:30pm 24.5 - - - - SSE 32 37 17 20 1015.7 - -
24/04:20pm 24.5 - - - - SSE 32 - 17 - - 1015.5 -
24/04:00pm 24.5 - - - - SSE 32 39 17 21 1015.4 - -
24/03:30pm 24.6 - - - - SSE 32 39 17 21 1015.5 - -
24/03:20pm 24.5 - - - - SSE 33 - 18 - - 1015.4 -
24/03:00pm 24.7 - - - - SSE 32 39 17 21 1015.5 - -
24/02:30pm 24.6 - - - - SSE 33 41 18 22 1015.6 - -
24/02:20pm 24.6 - - - - SSE 32 - 17 - - 1015.6 -
24/02:00pm 24.5 - - - - SSE 33 43 18 23 1015.7 - -
24/01:30pm 24.6 - - - - SSE 33 41 18 22 1015.9 - -
24/01:20pm 24.5 - - - - SSE 32 - 17 - - 1015.9 -
24/01:00pm 24.6 - - - - SSE 32 41 17 22 1016.3 - -
24/12:30pm 24.4 - - - - SSE 32 43 17 23 1016.8 - -
24/12:20pm 24.6 - - - - SSE 30 - 16 - - 1016.9 -
24/12:00pm 24.6 - - - - SSE 32 39 17 21 1017.2 - -
24/11:30am 24.6 - - - - SSE 32 41 17 22 1017.5 - -
24/11:20am 24.6 - - - - SSE 30 - 16 - - 1017.6 -
24/11:00am 24.5 - - - - SSE 32 39 17 21 1017.8 - -
24/10:30am 24.6 - - - - SSE 33 43 18 23 1018.1 - -
24/10:20am 24.6 - - - - SSE 35 - 19 - - 1018.2 -
24/10:00am 24.7 - - - - SE 37 44 20 24 1018.4 - -
24/09:30am 24.8 - - - - SSE 33 41 18 22 1018.5 - -
24/09:20am 24.5 - - - - SSE 32 - 17 - - 1018.5 -
24/09:00am 24.6 - - - - SSE 35 43 19 23 1018.5 - -
24/08:30am 24.6 - - - - SSE 35 41 19 22 1018.2 - -
24/08:20am 24.6 - - - - SSE 33 - 18 - - 1018.1 -
24/08:00am 24.5 - - - - SSE 35 43 19 23 1018.0 - -
24/07:30am 24.6 - - - - SSE 33 43 18 23 1017.7 - -
24/07:20am 24.5 - - - - SSE 37 - 20 - - 1017.6 -
24/07:00am 24.6 - - - - SE 37 41 20 22 1017.5 - -
24/06:30am 24.4 - - - - SSE 35 41 19 22 1017.2 - -
24/06:20am 24.3 - - - - SSE 32 - 17 - - 1017.0 -
24/06:00am 24.1 - - - - SSE 32 44 17 24 1017.0 - -
24/05:30am 24.3 - - - - SE 33 39 18 21 1016.8 - -
24/05:20am 24.4 - - - - SSE 32 - 17 - - 1016.6 -
24/05:00am 24.3 - - - - SSE 33 39 18 21 1016.6 - -
24/04:30am 24.4 - - - - SE 39 44 21 24 1016.4 - -
24/04:20am 24.3 - - - - SE 35 - 19 - - 1016.2 -
24/04:00am 24.3 - - - - SE 35 41 19 22 1016.3 - -
24/03:30am 24.3 - - - - SE 33 41 18 22 1016.2 - -
24/03:20am 24.1 - - - - SE 33 - 18 - - 1016.0 -
24/03:00am 24.3 - - - - SE 35 39 19 21 1016.2 - -
24/02:30am 24.4 - - - - SE 35 41 19 22 1016.3 - -
24/02:20am 24.3 - - - - SE 35 - 19 - - 1016.2 -
24/02:00am 24.4 - - - - SE 37 43 20 23 1016.4 - -
24/01:30am 24.4 - - - - SE 37 44 20 24 1016.5 - -
24/01:20am 24.4 - - - - SE 37 - 20 - - 1016.4 -
24/01:00am 24.5 - - - - SE 35 41 19 22 1016.6 - -
24/12:30am 24.4 - - - - SSE 37 43 20 23 1016.6 - -
24/12:20am 24.5 - - - - SSE 35 - 19 - - 1016.6 -
24/12:00am 24.5 - - - - SE 35 43 19 23 1016.9 - -
 
Date/Time
EST
Temp
°C
App
Temp
°C
Dew
Point
°C
Rel
Hum
%
Delta-T
°C
Wind Press
QNH
hPa
Press
MSL
hPa
Rain since
9am
mm
Dir  Spd
km/h
Gust
km/h
Spd
kts
Gust
kts
23/11:30pm 24.4 - - - - SE 37 43 20 23 1017.2 - -
23/11:20pm 24.5 - - - - SE 39 - 21 - - 1017.2 -
23/11:00pm 24.6 - - - - SE 37 43 20 23 1017.4 - -
23/10:30pm 24.5 - - - - SE 37 43 20 23 1017.4 - -
23/10:20pm 24.5 - - - - SE 35 - 19 - - 1017.3 -
23/10:00pm 24.5 - - - - SSE 37 43 20 23 1017.5 - -
23/09:30pm 24.5 - - - - SE 39 44 21 24 1017.4 - -
23/09:20pm 24.6 - - - - SSE 39 - 21 - - 1017.2 -
23/09:00pm 24.6 - - - - SE 39 44 21 24 1017.4 - -
23/08:30pm 24.6 - - - - SSE 41 44 22 24 1017.3 - -
23/08:20pm 24.8 - - - - SSE 37 - 20 - - 1017.2 -
23/08:00pm 24.7 - - - - SSE 35 43 19 23 1017.2 - -
23/07:30pm 24.7 - - - - SSE 33 39 18 21 1017.2 - -
23/07:20pm 24.6 - - - - SSE 35 - 19 - - 1016.9 -
23/07:00pm 24.5 - - - - SSE 35 43 19 23 1016.9 - -
23/06:30pm 24.5 - - - - SE 33 39 18 21 1016.7 - -
23/06:20pm 24.6 - - - - SE 35 - 19 - - 1016.4 -
23/06:00pm 24.6 - - - - SSE 33 39 18 21 1016.3 - -
23/05:30pm 24.5 - - - - SE 33 37 18 20 1016.2 - -
23/05:20pm 24.6 - - - - SSE 35 - 19 - - 1016.0 -
23/05:00pm 24.6 - - - - SE 33 37 18 20 1016.0 - -
23/04:30pm 24.7 - - - - SE 33 37 18 20 1015.9 - -
23/04:20pm 24.6 - - - - SSE 33 - 18 - - 1015.8 -
23/04:00pm 24.7 - - - - SSE 33 37 18 20 1015.7 - -
23/03:30pm 24.8 - - - - SSE 33 39 18 21 1015.5 - -
23/03:20pm 24.8 - - - - SSE 33 - 18 - - 1015.4 -
23/03:00pm 24.9 - - - - SSE 33 39 18 21 1015.4 - -
23/02:30pm 24.8 - - - - SSE 33 39 18 21 1015.5 - -
23/02:20pm 25.1 - - - - SE 33 - 18 - - 1015.4 -
23/02:00pm 24.8 - - - - SSE 35 39 19 21 1015.6 - -
23/01:30pm 24.9 - - - - SE 33 39 18 21 1015.7 - -
23/01:20pm 24.9 - - - - SE 32 - 17 - - 1015.7 -
23/01:00pm 25.0 - - - - SE 32 37 17 20 1016.1 - -
23/12:30pm 24.9 - - - - SE 32 39 17 21 1016.4 - -
23/12:20pm 25.0 - - - - SE 32 - 17 - - 1016.4 -
23/12:00pm 25.0 - - - - SE 32 37 17 20 1016.8 - -
23/11:30am 24.9 - - - - SE 33 39 18 21 1017.2 - -
23/11:20am 25.0 - - - - SE 33 - 18 - - 1017.2 -
23/11:00am 25.0 - - - - SE 33 39 18 21 1017.5 - -
23/10:30am 25.1 - - - - SE 35 41 19 22 1017.9 - -
23/10:20am 25.1 - - - - SE 35 - 19 - - 1017.9 -
23/10:00am 25.0 - - - - SE 33 39 18 21 1018.0 - -
23/09:30am 24.9 - - - - ESE 35 41 19 22 1018.1 - -
23/09:20am 25.0 - - - - SE 37 - 20 - - 1018.0 -
23/09:00am 25.1 - - - - ESE 35 41 19 22 1018.0 - -
23/08:30am 24.9 - - - - SE 37 41 20 22 1017.9 - -
23/08:20am 24.9 - - - - SE 37 - 20 - - 1017.7 -
23/08:00am 24.8 - - - - SE 33 43 18 23 1017.7 - -
23/07:54am 24.5 - - - - SE 30 35 16 19 1017.7 - -
23/07:30am 22.2 - - - - E 39 46 21 25 1017.8 - -
23/07:20am 22.9 - - - - E 41 - 22 - - 1017.6 -
23/07:00am 23.9 - - - - E 33 37 18 20 1017.4 - -
23/06:30am 23.8 - - - - E 35 43 19 23 1017.0 - -
23/06:20am 23.9 - - - - E 35 - 19 - - 1016.8 -
23/06:15am 23.8 - - - - E 37 46 20 25 1016.8 - -
23/06:00am 23.8 - - - - ESE 37 46 20 25 1016.6 - -
23/05:54am 24.5 - - - - SE 35 41 19 22 1016.4 - -
23/05:30am 23.7 - - - - E 37 43 20 23 1016.3 - -
23/05:20am 23.8 - - - - E 33 - 18 - - 1016.1 -
23/05:00am 23.3 - - - - E 35 46 19 25 1016.1 - -
23/04:36am 24.0 - - - - E 41 44 22 24 1016.1 - -
23/04:30am 24.8 - - - - SE 37 44 20 24 1015.9 - -
23/04:20am 24.8 - - - - SE 39 - 21 - - 1015.7 -
23/04:00am 24.9 - - - - SE 39 43 21 23 1015.7 - -
23/03:30am 24.9 - - - - SE 37 43 20 23 1015.5 - -
23/03:20am 24.7 - - - - SE 37 - 20 - - 1015.4 -
23/03:00am 24.9 - - - - SE 43 46 23 25 1015.6 - -
23/02:30am 24.0 - - - - ESE 43 48 23 26 1015.7 - -
23/02:20am 23.4 - - - - SE 43 - 23 - - 1015.6 -
23/02:00am 25.0 - - - - SE 37 44 20 24 1015.8 - -
23/01:30am 24.9 - - - - SE 37 43 20 23 1015.9 - -
23/01:20am 25.0 - - - - SE 39 - 21 - - 1015.8 -
23/01:00am 25.0 - - - - SE 39 44 21 24 1016.0 - -
23/12:30am 24.9 - - - - SE 39 44 21 24 1015.9 - -
23/12:20am 25.0 - - - - SE 39 - 21 - - 1015.9 -
23/12:00am 24.9 - - - - SE 41 48 22 26 1016.1 - -
 
Date/Time
EST
Temp
°C
App
Temp
°C
Dew
Point
°C
Rel
Hum
%
Delta-T
°C
Wind Press
QNH
hPa
Press
MSL
hPa
Rain since
9am
mm
Dir  Spd
km/h
Gust
km/h
Spd
kts
Gust
kts
22/11:30pm 24.9 - - - - SE 41 48 22 26 1016.2 - -
22/11:20pm 24.9 - - - - SE 37 - 20 - - 1016.2 -
22/11:00pm 24.5 - - - - SE 39 43 21 23 1016.4 - -
22/10:30pm 23.8 - - - - SE 44 50 24 27 1016.5 - -
22/10:20pm 24.1 - - - - SE 41 - 22 - - 1016.3 -
22/10:00pm 25.2 - - - - SE 43 50 23 27 1016.4 - -
22/09:30pm 24.9 - - - - SE 41 48 22 26 1016.5 - -
22/09:20pm 24.9 - - - - SE 41 - 22 - - 1016.4 -
22/09:00pm 24.4 - - - - SE 39 44 21 24 1016.6 - -
22/08:30pm 24.5 - - - - SE 43 48 23 26 1016.4 - -
22/08:20pm 24.5 - - - - SE 43 - 23 - - 1016.3 -
22/08:00pm 24.7 - - - - SE 43 48 23 26 1016.3 - -
22/07:30pm 24.9 - - - - SE 43 54 23 29 1016.0 - -
22/07:20pm 24.9 - - - - SE 43 - 23 - - 1015.8 -
22/07:00pm 24.9 - - - - SE 43 52 23 28 1015.6 - -
22/06:30pm 24.7 - - - - SE 37 46 20 25 1015.2 - -
22/06:20pm 24.9 - - - - SE 41 - 22 - - 1015.0 -
22/06:00pm 24.7 - - - - SE 39 44 21 24 1014.8 - -
22/05:30pm 25.0 - - - - SE 43 48 23 26 1014.6 - -
22/05:20pm 24.9 - - - - SE 43 - 23 - - 1014.5 -
22/05:00pm 24.8 - - - - SE 41 48 22 26 1014.4 - -
22/04:30pm 25.0 - - - - SE 39 46 21 25 1014.2 - -
22/04:20pm 25.0 - - - - SE 41 - 22 - - 1014.0 -
22/04:00pm 25.2 - - - - SE 41 48 22 26 1013.9 - -
22/03:30pm 25.2 - - - - SE 41 48 22 26 1013.6 - -
22/03:20pm 25.2 - - - - SE 41 - 22 - - 1013.4 -
22/03:00pm 25.1 - - - - SE 43 50 23 27 1013.4 - -
22/02:30pm 25.2 - - - - SE 44 50 24 27 1013.5 - -
22/02:20pm 25.1 - - - - SSE 44 - 24 - - 1013.3 -
22/02:00pm 25.3 - - - - SE 41 46 22 25 1013.6 - -
22/01:30pm 25.2 - - - - SE 41 48 22 26 1013.8 - -
22/01:20pm 25.2 - - - - SE 43 - 23 - - 1013.8 -
22/01:00pm 25.2 - - - - SE 41 46 22 25 1014.1 - -
22/12:30pm 25.1 - - - - SE 41 46 22 25 1014.4 - -
22/12:20pm 25.2 - - - - SE 43 - 23 - - 1014.4 -
22/12:00pm 24.1 - - - - SE 32 35 17 19 1014.8 - -
22/11:30am 25.1 - - - - SE 37 44 20 24 1015.1 - -
22/11:20am 25.2 - - - - SE 39 - 21 - - 1015.1 -
22/11:00am 24.2 - - - - SE 32 39 17 21 1015.4 - -
22/10:46am 23.3 - - - - SE 41 54 22 29 1015.8 - -
22/10:30am 25.0 - - - - SSE 37 43 20 23 1015.7 - -
22/10:20am 24.5 - - - - SSE 35 - 19 - - 1015.7 -
22/10:09am 24.9 - - - - SSE 30 50 16 27 1016.0 - -
22/10:00am 24.8 - - - - SSE 32 37 17 20 1016.0 - -
22/09:30am 24.0 - - - - SSE 33 41 18 22 1016.0 - -
22/09:20am 23.9 - - - - SSE 39 - 21 - - 1016.0 -
22/09:00am 24.8 - - - - SE 33 39 18 21 1016.0 - -
22/08:30am 24.4 - - - - SE 33 41 18 22 1015.9 - -
22/08:20am 24.1 - - - - SE 35 - 19 - - 1015.8 -
22/08:00am 23.7 - - - - SE 35 52 19 28 1015.9 - -
22/07:30am 24.7 - - - - SE 33 39 18 21 1015.5 - -
22/07:20am 24.6 - - - - SE 32 - 17 - - 1015.3 -
22/07:00am 24.8 - - - - SSE 32 37 17 20 1015.1 - -
22/06:30am 24.5 - - - - SE 35 41 19 22 1014.8 - -
22/06:20am 24.6 - - - - SE 37 - 20 - - 1014.6 -
22/06:00am 24.3 - - - - SE 32 37 17 20 1014.3 - -
22/05:30am 24.3 - - - - SSE 35 41 19 22 1014.1 - -
22/05:20am 24.2 - - - - SSE 33 - 18 - - 1013.9 -
22/05:00am 23.2 - - - - SSE 26 32 14 17 1013.9 - -
22/04:30am 23.6 - - - - SE 37 44 20 24 1014.0 - -
22/04:20am 24.4 - - - - SSE 35 - 19 - - 1013.8 -
22/04:00am 24.4 - - - - SSE 35 43 19 23 1013.8 - -
22/03:30am 23.8 - - - - SSE 35 41 19 22 1013.9 - -
22/03:20am 23.8 - - - - SSE 33 - 18 - - 1013.8 -
22/03:00am 24.0 - - - - SSE 35 44 19 24 1014.0 - -
22/02:30am 24.5 - - - - SSE 32 39 17 21 1013.9 - -
22/02:20am 24.4 - - - - SSE 35 - 19 - - 1013.9 -
22/02:00am 24.4 - - - - SSE 33 39 18 21 1014.2 - -
22/01:30am 24.1 - - - - SSE 26 32 14 17 1014.3 - -
22/01:20am 24.1 - - - - SSE 28 - 15 - - 1014.3 -
22/01:00am 24.6 - - - - SSE 37 44 20 24 1014.5 - -
22/12:30am 24.4 - - - - SSE 32 39 17 21 1014.7 - -
22/12:20am 24.4 - - - - SSE 33 - 18 - - 1014.7 -
22/12:00am 24.6 - - - - SSE 30 33 16 18 1014.9 - -
 
Date/Time
EST
Temp
°C
App
Temp
°C
Dew
Point
°C
Rel
Hum
%
Delta-T
°C
Wind Press
QNH
hPa
Press
MSL
hPa
Rain since
9am
mm
Dir  Spd
km/h
Gust
km/h
Spd
kts
Gust
kts
21/11:30pm 24.6 - - - - SSE 32 37 17 20 1015.2 - -
21/11:20pm 24.7 - - - - SSE 32 - 17 - - 1015.2 -
21/11:00pm 24.5 - - - - SSE 30 35 16 19 1015.5 - -
21/10:30pm 24.5 - - - - SSE 28 35 15 19 1015.6 - -
21/10:20pm 24.1 - - - - S 30 - 16 - - 1015.5 -
21/10:00pm 24.5 - - - - S 33 39 18 21 1015.6 - -

Other Formats:

Comma delimited format used in spreadsheet applications
http://www.bom.gov.au/fwo/IDQ60801/IDQ60801.94371.axf

JavaScript Object Notation format (JSON) in row-major order
http://www.bom.gov.au/fwo/IDQ60801/IDQ60801.94371.json